Etusivu
METAR-TAF:

METAR-TAF

Lentoasemat :

Hermosillo, Meksiko

Leveyspiiri: 29-04N, Pituuspiiri: 110-57W, korkeus merenpinnasta: 211 m

Tämänhetkinen sää

Tämä raportti tehtiin 55 minuuttia sitten, kello 11.40 UTC
tyyntä
Lämpötila 10°C
Kosteus 100%
Ilmanpaine 1017 hPa
Näkyvyys: 16.1 km
selkeää

METAR: MMHO 231140Z 00000KT 10SM SKC 10/10 A3003 RMK SLP171 57005 964 HZY

Aika: 05:35 (12:35 UTC)

Sääennuste

Tämä raportti tehtiin 6 tuntia ja 58 minuuttia sitten, kello 05.37 UTC
Ennuste voimassa 23. päivästä klo 06 UTC - 24. päivään klo 06 UTC
Tuuli 4 kn lännestä
Näkyvyys: 10 km
selkeää
From 23. päivästä klo 1800 UTC
Tuuli 8 kn lännestä/lounaasta
Näkyvyys: 10 km
Hajanaisia pilviä 3000 ft:n korkeudessa
Tulossa
24. päivästä klo 03 UTC - 24. päivään klo 05 UTC
Tuuli 5 kn idästä
selkeää

TAF: MMHO 230537Z 2306/2406 26004KT P6SM SKC FM231800 24008KT P6SM SCT030 BECMG 2403/2405 09005KT SKC

Säähavainnot ja -ennusteet yli 4000 lentoasemalta (METAR- ja TAF-raportit).

Käytössä olevat sääasemat on merkitty karttaan keltaisilla ja punaisilla pisteillä.

Aseta hiiri pisteen päälle nähdäksesi sääaseman nimen.

Klikkaa sitten nähdäksesi säähavainnot ja -ennusteet.

Kartan vaihtaminen: klikkaa mustalla rastilla varustettuja vihreitä pisteitä, niin voit zoomata sisään; viivalla varustettua vihreää pistettä, niin voit zoomata ulos tai vihreitä nuolia, niin pääset viereisille kartoille.


METAR-TAF: